Time;durP1;ratioP1;P1;durP2;ratioP2;P2;SDS_P1;SDS_P2;PMS_P1;PMS_P2;Temp;Humidity;BMP_temperature;BMP_pressure;BME280_temperature;BME280_humidity;BME280_pressure;Samples;Min_cycle;Max_cycle;Signal;HPM_P1;HPM_P2
2021/03/27 00:02:21;;;;;;;25.05;15.05;;;;;;;8.48;53.94;101125.49;1755441;80;21161;-61
2021/03/27 00:05:12;;;;;;;23.18;13.62;;;;;;;8.47;54.00;101131.69;1741329;79;21148;-59
2021/03/27 00:08:00;;;;;;;25.20;13.65;;;;;;;8.47;54.01;101127.76;1770669;79;21149;-57
2021/03/27 00:10:38;;;;;;;22.30;14.43;;;;;;;8.47;54.02;101126.89;1767150;80;22012;-59
2021/03/27 00:13:13;;;;;;;24.60;15.23;;;;;;;8.43;54.12;101120.98;1744209;80;21229;-57
2021/03/27 00:15:48;;;;;;;27.30;16.30;;;;;;;8.40;54.17;101118.51;1775894;80;21160;-57
2021/03/27 00:18:36;;;;;;;30.37;16.97;;;;;;;8.42;54.15;101118.42;1773756;80;21160;-57
2021/03/27 00:21:20;;;;;;;32.85;18.85;;;;;;;8.40;54.14;101118.98;1767733;80;21116;-59
2021/03/27 00:24:05;;;;;;;25.72;17.07;;;;;;;8.41;54.20;101118.06;1772302;80;21198;-58
2021/03/27 00:27:44;;;;;;;24.70;16.77;;;;;;;8.46;54.18;101118.19;1800175;78;22797;-59
2021/03/27 00:30:17;;;;;;;29.32;16.25;;;;;;;8.40;54.18;101119.82;1712393;80;21144;-59
2021/03/27 00:32:49;;;;;;;25.67;15.10;;;;;;;8.38;54.57;101121.70;1734918;80;21041;-59
2021/03/27 00:35:24;;;;;;;26.48;17.77;;;;;;;8.38;54.57;101121.70;1679937;83;21609;-59
2021/03/27 00:37:53;;;;;;;28.25;18.10;;;;;;;8.33;54.31;101119.34;1678948;83;21188;-59
2021/03/27 00:40:23;;;;;;;24.52;15.00;;;;;;;8.30;54.59;101116.89;1696980;82;21251;-59
2021/03/27 00:43:04;;;;;;;29.92;17.35;;;;;;;8.23;54.54;101115.57;1719974;81;21575;-59
2021/03/27 00:45:43;;;;;;;32.03;19.73;;;;;;;8.17;54.69;101118.58;1698000;82;21255;-57
2021/03/27 00:48:19;;;;;;;34.53;18.92;;;;;;;8.12;54.83;101118.83;1713236;81;21075;-58
2021/03/27 00:50:54;;;;;;;;;;;;;;;8.16;54.83;101123.42;1685754;82;21141;-59
2021/03/27 00:53:38;;;;;;;26.10;15.83;;;;;;;8.14;54.81;101118.75;1695250;83;20280;-58
2021/03/27 00:56:18;;;;;;;28.07;17.77;;;;;;;8.10;54.93;101123.33;1698723;82;21184;-58
2021/03/27 00:59:07;;;;;;;31.35;18.73;;;;;;;8.05;55.20;101127.12;1721419;81;21240;-59
2021/03/27 01:12:38;;;;;;;26.30;16.15;;;;;;;7.72;56.12;101118.96;1809224;77;25264;-57
2021/03/27 01:15:17;;;;;;;26.80;17.50;;;;;;;7.68;56.15;101120.05;1775024;78;21128;-57
2021/03/27 01:18:16;;;;;;;38.83;25.47;;;;;;;7.70;56.26;101118.17;1747856;79;38959;-59
2021/03/27 01:20:50;;;;;;;31.48;20.15;;;;;;;7.88;55.87;101119.75;1739051;82;21114;-59
2021/03/27 01:23:18;;;;;;;28.98;20.62;;;;;;;8.10;55.31;101115.46;1733117;82;21365;-59
2021/03/27 01:25:45;;;;;;;32.75;20.02;;;;;;;8.06;55.30;101123.58;1704200;82;21034;-58
2021/03/27 01:28:37;;;;;;;28.77;19.07;;;;;;;8.05;55.28;101123.19;1732713;82;21108;-58
2021/03/27 01:31:13;;;;;;;29.35;18.20;;;;;;;8.07;55.26;101121.31;1683630;84;21196;-58
2021/03/27 01:34:01;;;;;;;31.87;19.23;;;;;;;8.02;55.30;101122.05;1683958;83;21615;-58
2021/03/27 01:36:44;;;;;;;32.83;18.55;;;;;;;7.94;55.42;101122.03;1658580;84;21195;-57
2021/03/27 01:39:16;;;;;;;28.47;18.32;;;;;;;7.92;55.46;101130.45;1680106;84;21200;-58
2021/03/27 01:41:55;;;;;;;31.30;17.40;;;;;;;7.93;55.45;101129.51;1680765;84;21482;-58
2021/03/27 01:44:51;;;;;;;23.00;14.70;;;;;;;7.95;55.38;101133.35;1660817;84;21232;-58
2021/03/27 01:47:36;;;;;;;24.50;15.30;;;;;;;7.95;55.47;101131.59;1656110;84;21184;-58
2021/03/27 01:50:41;;;;;;;31.50;16.00;;;;;;;7.89;55.55;101124.55;1652458;83;21655;-58
2021/03/27 01:53:39;;;;;;;25.80;17.55;;;;;;;7.81;55.68;101128.91;1669833;84;21785;-59
2021/03/27 01:56:37;;;;;;;27.07;16.23;;;;;;;7.77;55.77;101127.41;1677581;84;21199;-59
2021/03/27 01:59:15;;;;;;;27.50;16.30;;;;;;;7.78;55.82;101131.25;1692351;83;21144;-58
2021/03/27 02:01:53;;;;;;;27.87;15.75;;;;;;;7.73;55.85;101119.32;1691917;84;21136;-58
2021/03/27 02:04:37;;;;;;;27.05;17.48;;;;;;;7.71;56.01;101129.05;1656281;85;21909;-58
2021/03/27 02:07:19;;;;;;;26.65;16.35;;;;;;;7.70;56.03;101133.89;1673649;84;21267;-58
2021/03/27 02:10:29;;;;;;;33.42;14.83;;;;;;;7.74;55.97;101138.05;1690737;84;21231;-59
2021/03/27 02:13:17;;;;;;;27.62;15.68;;;;;;;7.76;55.92;101130.94;1670786;84;21926;-57
2021/03/27 02:16:18;;;;;;;24.70;14.87;;;;;;;7.75;55.91;101137.09;1697208;84;21168;-58
2021/03/27 02:19:11;;;;;;;24.25;14.70;;;;;;;7.73;55.90;101135.04;1691236;83;22198;-58
2021/03/27 02:22:20;;;;;;;22.50;15.55;;;;;;;7.72;55.96;101135.98;1686411;84;21238;-58
2021/03/27 02:25:38;;;;;;;25.17;15.60;;;;;;;7.67;56.09;101138.02;1693115;84;21160;-58
2021/03/27 02:28:51;;;;;;;26.07;16.97;;;;;;;7.59;56.29;101139.27;1665660;84;21161;-59
2021/03/27 02:31:37;;;;;;;27.25;17.50;;;;;;;7.58;56.37;101140.66;1694405;84;21208;-58
2021/03/27 02:34:41;;;;;;;27.25;15.90;;;;;;;7.59;56.33;101146.29;1673747;84;21215;-58
2021/03/27 02:37:29;;;;;;;30.90;16.07;;;;;;;7.62;56.33;101150.89;1700435;83;21944;-59
2021/03/27 02:40:10;;;;;;;22.58;15.03;;;;;;;7.63;56.23;101143.42;1692155;84;21204;-58
2021/03/27 02:54:00;;;;;;;22.80;13.68;;;;;;;7.28;57.16;101147.11;1830642;76;22750;-58
2021/03/27 02:56:51;;;;;;;25.35;14.85;;;;;;;7.20;57.33;101147.54;1811156;77;21176;-57
2021/03/27 03:00:07;;;;;;;26.80;16.05;;;;;;;7.24;57.37;101147.27;1793234;78;22840;-59
2021/03/27 03:03:17;;;;;;;27.02;14.78;;;;;;;7.27;57.31;101157.22;1713352;78;21183;-59
2021/03/27 03:06:03;;;;;;;25.57;16.73;;;;;;;7.33;57.19;101154.25;1668498;83;21156;-59
2021/03/27 03:08:42;;;;;;;26.95;16.62;;;;;;;7.39;57.02;101150.00;1661918;83;22577;-59
2021/03/27 03:11:29;;;;;;;23.90;15.38;;;;;;;7.45;56.89;101154.91;1700756;81;23365;-58
2021/03/27 03:14:21;;;;;;;25.00;16.97;;;;;;;7.46;56.81;101149.20;1701588;83;21184;-59
2021/03/27 03:17:38;;;;;;;26.35;16.17;;;;;;;7.45;56.79;101156.22;1708120;82;21704;-58
2021/03/27 03:20:27;;;;;;;22.20;15.25;;;;;;;7.43;56.84;101156.30;1680350;83;21178;-60
2021/03/27 03:23:18;;;;;;;27.62;14.50;;;;;;;7.42;56.90;101154.60;1695402;82;21174;-59
2021/03/27 03:26:22;;;;;;;28.12;16.55;;;;;;;7.39;56.97;101160.00;1666926;82;21254;-58
2021/03/27 03:29:04;;;;;;;22.50;14.33;;;;;;;7.36;57.09;101161.50;1710943;82;21129;-59
2021/03/27 03:31:45;;;;;;;28.65;15.48;;;;;;;7.34;57.09;101154.64;1703585;82;21265;-59
2021/03/27 03:34:53;;;;;;;21.95;14.78;;;;;;;7.37;57.38;101162.34;1676939;82;21226;-59
2021/03/27 03:37:44;;;;;;;;;;;;;;;7.37;57.48;101161.86;1696283;82;21315;-58
2021/03/27 03:40:23;;;;;;;19.95;13.32;;;;;;;7.36;57.57;101161.95;1714874;82;20270;-59
2021/03/27 03:43:27;;;;;;;25.45;15.20;;;;;;;7.31;57.72;101167.42;1711191;81;21180;-59
2021/03/27 03:46:26;;;;;;;21.20;13.83;;;;;;;7.31;57.71;101162.66;1733894;81;21242;-59
2021/03/27 03:49:21;;;;;;;26.93;14.18;;;;;;;7.32;57.72;101166.98;1673706;81;22652;-59
2021/03/27 03:52:15;;;;;;;21.80;14.07;;;;;;;7.32;57.72;101166.98;1719577;81;21486;-58
2021/03/27 03:55:35;;;;;;;19.77;15.08;;;;;;;7.32;57.74;101161.27;1740834;81;21183;-58
2021/03/27 03:58:17;;;;;;;24.12;13.35;;;;;;;7.33;57.72;101168.65;1716646;83;21248;-59
2021/03/27 04:04:19;;;;;;;23.15;14.30;;;;;;;7.32;57.70;101165.67;1796131;77;23162;-67
2021/03/27 04:06:49;;;;;;;23.55;13.88;;;;;;;7.26;57.71;101166.82;1762290;78;21216;-68
2021/03/27 04:09:22;;;;;;;25.90;15.70;;;;;;;7.27;57.78;101169.00;1690341;81;21380;-66
2021/03/27 04:12:08;;;;;;;26.05;16.15;;;;;;;7.29;57.75;101171.90;1755481;80;21046;-64
2021/03/27 04:15:16;;;;;;;27.77;16.85;;;;;;;7.30;57.68;101173.60;1728469;81;21185;-63
2021/03/27 04:18:26;;;;;;;24.72;16.25;;;;;;;7.33;57.67;101176.06;1753092;80;21157;-64
2021/03/27 04:21:04;;;;;;;25.32;15.98;;;;;;;7.37;57.66;101175.43;1709458;80;21168;-65
2021/03/27 04:26:20;;;;;;;29.48;16.50;;;;;;;7.38;57.64;101167.94;1752360;77;22737;-65
2021/03/27 04:29:11;;;;;;;24.55;16.52;;;;;;;7.35;57.69;101179.91;1724832;82;21552;-66
2021/03/27 04:32:19;;;;;;;25.05;16.50;;;;;;;7.39;57.62;101177.49;1633079;82;23477;-65
2021/03/27 04:34:55;;;;;;;26.55;15.28;;;;;;;7.45;57.49;101183.72;1732302;82;21113;-66
2021/03/27 04:37:52;;;;;;;23.97;16.17;;;;;;;7.47;57.41;101181.86;1735086;81;21223;-65
2021/03/27 04:40:27;;;;;;;23.20;16.15;;;;;;;7.48;57.36;101184.87;1720104;82;21152;-66
2021/03/27 04:43:05;;;;;;;27.00;14.43;;;;;;;7.50;57.13;101188.24;1726780;82;21104;-65
2021/03/27 04:45:42;;;;;;;30.88;15.45;;;;;;;7.53;57.07;101191.14;1707463;82;21257;-68
2021/03/27 04:48:40;;;;;;;24.63;15.13;;;;;;;7.55;56.97;101192.77;1729579;80;21207;-65
2021/03/27 04:51:23;;;;;;;21.73;13.98;;;;;;;7.57;56.85;101187.44;1730338;80;22297;-65
2021/03/27 04:54:25;;;;;;;27.58;13.95;;;;;;;7.54;56.75;101191.06;1729981;80;21436;-68
2021/03/27 04:57:37;;;;;;;20.05;12.70;;;;;;;7.53;56.70;101198.55;1733187;82;21168;-66
2021/03/27 05:00:36;;;;;;;26.00;13.62;;;;;;;7.51;56.72;101194.31;1725202;80;21196;-67
2021/03/27 05:03:27;;;;;;;23.57;13.22;;;;;;;7.48;56.76;101198.41;1697774;82;21207;-68
2021/03/27 05:06:22;;;;;;;24.47;15.10;;;;;;;7.44;56.78;101202.48;1705086;83;21132;-66
2021/03/27 05:09:06;;;;;;;22.82;14.40;;;;;;;7.42;56.82;101206.97;1710578;83;21223;-68
2021/03/27 05:11:53;;;;;;;25.00;14.30;;;;;;;7.38;56.97;101210.70;1708438;83;21195;-69
2021/03/27 05:14:47;;;;;;;27.37;14.98;;;;;;;7.36;57.18;101211.25;1708314;82;21270;-66
2021/03/27 05:17:20;;;;;;;23.05;14.58;;;;;;;7.38;57.27;101210.70;1676394;82;21176;-67
2021/03/27 05:20:18;;;;;;;22.82;14.00;;;;;;;7.42;57.10;101216.61;1704413;82;21195;-67
2021/03/27 05:23:15;;;;;;;22.75;13.78;;;;;;;7.42;57.19;101217.45;1682148;83;21316;-68
2021/03/27 05:26:28;;;;;;;24.82;14.33;;;;;;;7.44;57.14;101215.58;1707073;82;21220;-66
2021/03/27 05:29:18;;;;;;;32.80;14.83;;;;;;;7.48;57.11;101216.30;1808795;78;22780;-60
2021/03/27 05:31:56;;;;;;;21.07;13.55;;;;;;;7.48;57.11;101216.30;1777063;79;21211;-59
2021/03/27 05:34:37;;;;;;;26.07;15.85;;;;;;;7.55;56.88;101215.02;1761608;79;21282;-60
2021/03/27 05:37:52;;;;;;;22.87;13.65;;;;;;;7.62;56.96;101217.69;1726323;82;21178;-56
2021/03/27 05:40:44;;;;;;;27.52;15.20;;;;;;;7.72;56.72;101221.13;1742926;81;21234;-56
2021/03/27 05:43:42;;;;;;;22.62;14.10;;;;;;;7.78;56.37;101223.39;1694470;82;21244;-60
2021/03/27 05:46:59;;;;;;;33.53;15.45;;;;;;;7.86;56.30;101215.95;1827826;76;22366;-59
2021/03/27 05:49:45;;;;;;;23.02;14.43;;;;;;;7.90;56.31;101225.36;1792375;78;21223;-60
2021/03/27 05:53:06;;;;;;;24.95;15.18;;;;;;;7.99;55.92;101229.23;1798316;77;21233;-59
2021/03/27 05:56:15;;;;;;;24.55;15.48;;;;;;;8.06;55.56;101219.25;1795909;79;21179;-59
2021/03/27 05:58:53;;;;;;;24.67;14.55;;;;;;;8.12;55.62;101221.06;1799247;77;21570;-59
2021/03/27 06:01:54;;;;;;;24.55;15.53;;;;;;;8.24;55.50;101226.52;1792063;79;21201;-59
2021/03/27 06:05:06;;;;;;;26.77;16.75;;;;;;;8.42;55.01;101223.33;1819299;75;22846;-58
2021/03/27 06:08:15;;;;;;;27.95;16.65;;;;;;;8.45;54.88;101226.64;1765434;79;21159;-59
2021/03/27 06:11:16;;;;;;;28.87;17.42;;;;;;;8.53;54.56;101226.22;1784081;79;21112;-60
2021/03/27 06:14:10;;;;;;;24.47;15.35;;;;;;;8.59;54.41;101219.75;1718013;79;21230;-60
2021/03/27 06:17:03;;;;;;;22.95;16.57;;;;;;;8.66;54.41;101219.32;1764456;79;21210;-59
2021/03/27 06:19:57;;;;;;;23.18;14.73;;;;;;;8.73;54.11;101213.25;1794718;79;21233;-59
2021/03/27 06:23:08;;;;;;;24.87;15.30;;;;;;;8.79;53.97;101218.11;1794956;79;21230;-59
2021/03/27 06:26:05;;;;;;;28.87;15.18;;;;;;;8.83;53.50;101224.05;1768781;79;21241;-61
2021/03/27 06:28:46;;;;;;;27.73;14.87;;;;;;;8.85;53.64;101228.73;1808513;79;21195;-61
2021/03/27 06:31:32;;;;;;;24.77;15.60;;;;;;;8.89;53.54;101228.47;1763420;79;21210;-59
2021/03/27 06:34:19;;;;;;;;;;;;;;;8.95;53.36;101233.80;1800055;79;21179;-60
2021/03/27 06:37:15;;;;;;;22.22;13.68;;;;;;;9.00;52.99;101230.91;1794897;79;20294;-60
2021/03/27 06:40:02;;;;;;;27.82;13.93;;;;;;;8.99;52.88;101230.53;1760281;79;21221;-60
2021/03/27 06:42:57;;;;;;;24.18;14.05;;;;;;;9.05;52.79;101234.11;1797707;79;21210;-58
2021/03/27 06:45:58;;;;;;;24.10;12.98;;;;;;;9.11;52.35;101233.72;1743169;79;21181;-58
2021/03/27 06:48:55;;;;;;;24.27;13.98;;;;;;;9.16;52.20;101233.45;1775312;79;21515;-59
2021/03/27 06:51:44;;;;;;;22.87;14.78;;;;;;;9.20;52.34;101235.80;1805114;79;21186;-60
2021/03/27 06:54:48;;;;;;;25.10;14.65;;;;;;;9.26;52.00;101241.14;1770552;79;21174;-60
2021/03/27 06:57:55;;;;;;;22.73;14.80;;;;;;;9.34;51.78;101245.46;1797527;79;21689;-59
2021/03/27 07:00:40;;;;;;;24.02;13.55;;;;;;;9.42;51.69;101243.69;1789630;77;21151;-59
2021/03/27 07:03:48;;;;;;;20.75;13.10;;;;;;;9.49;51.31;101241.88;1804698;78;21648;-58
2021/03/27 07:06:42;;;;;;;23.35;13.90;;;;;;;9.56;50.78;101242.35;1799970;79;21176;-58
2021/03/27 07:09:50;;;;;;;25.30;14.20;;;;;;;9.56;50.71;101238.89;1798128;79;22300;-59
2021/03/27 07:13:00;;;;;;;23.67;14.85;;;;;;;9.58;50.63;101245.75;1777709;78;21163;-59
2021/03/27 07:16:16;;;;;;;27.05;14.53;;;;;;;9.61;50.62;101251.27;1795243;79;21171;-59
2021/03/27 07:19:09;;;;;;;23.38;14.58;;;;;;;9.62;50.58;101251.66;1742832;80;21269;-58
2021/03/27 07:22:03;;;;;;;23.90;13.50;;;;;;;9.66;50.82;101254.45;1744737;80;21209;-58
2021/03/27 07:24:55;;;;;;;29.18;19.07;;;;;;;9.80;50.54;101250.50;1851936;74;27744;-55
2021/03/27 07:27:53;;;;;;;23.87;14.60;;;;;;;10.06;49.83;101251.11;1831257;77;21190;-57
2021/03/27 07:30:58;;;;;;;23.77;15.28;;;;;;;10.32;49.07;101254.70;1834304;75;21196;-58
2021/03/27 07:33:52;;;;;;;26.30;15.53;;;;;;;10.30;49.15;101252.13;1836740;76;21167;-59
2021/03/27 07:36:59;;;;;;;26.95;15.80;;;;;;;10.36;49.17;101249.14;1812361;76;21129;-59
2021/03/27 07:39:38;;;;;;;27.27;15.38;;;;;;;10.44;48.97;101257.87;1815212;77;21180;-60
2021/03/27 07:42:38;;;;;;;30.27;17.00;;;;;;;10.51;48.86;101250.41;1809336;77;21799;-59
2021/03/27 07:45:47;;;;;;;32.95;18.35;;;;;;;10.57;49.08;101249.53;1813456;77;23504;-59
2021/03/27 07:48:36;;;;;;;56.55;27.80;;;;;;;10.67;48.95;101253.69;1706655;81;21246;-59
2021/03/27 07:55:03;;;;;;;43.02;23.12;;;;;;;10.88;48.56;101246.16;1794381;79;22785;-58
2021/03/27 07:58:05;;;;;;;24.98;16.73;;;;;;;10.91;48.45;101250.36;1711110;82;21121;-58
2021/03/27 08:01:15;;;;;;;27.62;14.78;;;;;;;11.02;48.09;101249.65;1687317;82;21822;-59
2021/03/27 08:04:32;;;;;;;26.00;15.28;;;;;;;11.10;47.59;101249.97;1715572;81;21109;-59
2021/03/27 08:07:27;;;;;;;33.85;17.27;;;;;;;11.14;47.31;101252.75;1714319;82;21227;-57
2021/03/27 08:10:31;;;;;;;25.12;16.02;;;;;;;11.14;47.68;101244.84;1680695;83;21227;-57
2021/03/27 08:13:48;;;;;;;26.20;14.83;;;;;;;11.20;47.35;101253.66;1708913;81;22293;-58
2021/03/27 08:16:50;;;;;;;20.90;15.08;;;;;;;11.27;47.46;101247.48;1700890;83;21308;-58
2021/03/27 08:19:38;;;;;;;24.63;15.28;;;;;;;11.35;47.01;101249.12;1708719;82;21227;-57
2021/03/27 08:22:31;;;;;;;24.07;15.32;;;;;;;11.40;46.75;101247.46;1662301;81;21243;-57
2021/03/27 08:25:10;;;;;;;27.17;15.15;;;;;;;11.45;47.03;101244.89;1711717;81;22333;-57
2021/03/27 08:28:13;;;;;;;24.20;14.95;;;;;;;11.55;46.73;101247.73;1734692;80;21398;-58
2021/03/27 08:31:38;;;;;;;23.73;15.13;;;;;;;11.66;46.45;101240.37;1703880;83;21407;-58
2021/03/27 08:34:51;;;;;;;23.18;13.80;;;;;;;11.79;46.37;101244.30;1735629;81;22475;-59
2021/03/27 08:37:56;;;;;;;23.50;14.83;;;;;;;11.95;45.51;101251.98;1734584;81;21329;-57
2021/03/27 08:40:57;;;;;;;22.22;14.55;;;;;;;12.02;45.17;101245.30;1716962;81;21224;-59
2021/03/27 08:43:58;;;;;;;24.92;16.45;;;;;;;12.05;44.93;101248.58;1717841;81;21260;-57
2021/03/27 08:47:00;;;;;;;26.00;15.88;;;;;;;12.08;45.12;101241.73;1721483;81;22328;-57
2021/03/27 08:49:50;;;;;;;24.35;15.68;;;;;;;12.20;44.42;101236.04;1689013;82;21583;-57
2021/03/27 08:52:47;;;;;;;27.40;16.42;;;;;;;12.30;43.58;101240.66;1715253;81;21207;-58
2021/03/27 08:55:51;;;;;;;26.45;17.57;;;;;;;12.34;43.72;101235.50;1706549;82;21666;-58
2021/03/27 08:58:54;;;;;;;28.77;17.75;;;;;;;12.41;43.93;101234.12;1682744;81;21164;-58
2021/03/27 09:01:45;;;;;;;28.50;16.35;;;;;;;12.57;43.82;101233.31;1714194;82;21216;-58
2021/03/27 09:04:40;;;;;;;28.73;18.90;;;;;;;12.68;42.95;101239.12;1710049;83;21206;-58
2021/03/27 09:07:55;;;;;;;26.50;18.90;;;;;;;12.70;42.87;101238.52;1708401;82;21207;-57
2021/03/27 09:10:40;;;;;;;28.38;18.07;;;;;;;12.74;42.65;101233.84;1699452;82;21220;-57
2021/03/27 09:13:14;;;;;;;26.60;18.05;;;;;;;12.81;42.39;101230.64;1685020;83;21650;-58
2021/03/27 09:16:15;;;;;;;29.75;18.05;;;;;;;12.91;41.97;101232.56;1711991;82;21230;-57
2021/03/27 09:18:58;;;;;;;26.57;17.05;;;;;;;12.98;40.36;101232.48;1693728;82;21208;-57
2021/03/27 09:21:40;;;;;;;26.90;17.65;;;;;;;13.03;40.54;101229.46;1718524;83;21235;-58
2021/03/27 09:24:34;;;;;;;23.45;16.10;;;;;;;13.07;40.19;101230.92;1697598;83;21256;-57
2021/03/27 09:27:52;;;;;;;24.60;14.78;;;;;;;13.14;39.60;101222.88;1689272;82;21238;-58
2021/03/27 09:30:34;;;;;;;26.00;14.75;;;;;;;13.17;38.90;101228.76;1713703;81;21220;-58
2021/03/27 09:33:28;;;;;;;26.15;16.45;;;;;;;13.18;38.84;101220.37;1703603;81;22232;-59
2021/03/27 09:36:19;;;;;;;22.27;13.62;;;;;;;13.23;38.41;101225.27;1737696;81;21223;-59
2021/03/27 09:39:23;;;;;;;27.32;13.38;;;;;;;13.26;38.13;101221.08;1712966;81;21223;-58
2021/03/27 09:42:37;;;;;;;22.98;13.95;;;;;;;13.29;37.01;101224.32;1733832;81;21219;-57
2021/03/27 09:45:39;;;;;;;25.48;15.18;;;;;;;13.30;37.32;101223.37;1734779;81;21171;-58
2021/03/27 09:48:28;;;;;;;22.52;15.00;;;;;;;13.33;37.33;101219.66;1711594;83;21216;-58
2021/03/27 09:51:11;;;;;;;22.55;15.08;;;;;;;13.39;36.49;101219.19;1713043;82;21610;-59
2021/03/27 09:54:17;;;;;;;23.98;14.90;;;;;;;13.46;36.67;101219.06;1709502;82;21255;-59
2021/03/27 09:57:23;;;;;;;22.20;13.53;;;;;;;13.47;36.67;101219.92;1664228;84;21239;-58
2021/03/27 10:00:14;;;;;;;19.45;12.55;;;;;;;13.54;35.59;101224.58;1669175;84;27049;-57
2021/03/27 10:02:58;;;;;;;21.23;13.03;;;;;;;13.57;35.65;101218.22;1719756;82;21611;-58
2021/03/27 10:05:54;;;;;;;19.57;12.97;;;;;;;13.60;34.27;101217.98;1729507;80;21239;-58
2021/03/27 10:08:44;;;;;;;21.23;12.03;;;;;;;13.64;34.49;101223.87;1737871;80;21982;-58
2021/03/27 10:11:21;;;;;;;20.25;12.65;;;;;;;13.64;34.42;101223.37;1738701;80;21206;-59
2021/03/27 10:14:05;;;;;;;16.30;11.45;;;;;;;13.66;34.57;101225.41;1740683;80;21475;-60
2021/03/27 10:16:46;;;;;;;19.77;12.05;;;;;;;13.73;35.10;101221.80;1740952;80;21164;-60
2021/03/27 10:19:28;;;;;;;21.30;12.37;;;;;;;13.81;34.70;101217.22;1743747;80;22281;-60
2021/03/27 10:22:16;;;;;;;19.95;12.30;;;;;;;13.86;34.45;101213.23;1736797;80;21212;-61
2021/03/27 10:25:10;;;;;;;19.15;12.20;;;;;;;13.93;34.94;101215.73;1734605;80;21674;-59
2021/03/27 10:27:43;;;;;;;19.17;12.78;;;;;;;14.08;34.13;101220.75;1738040;80;21720;-59
2021/03/27 10:30:21;;;;;;;22.30;13.38;;;;;;;14.15;33.97;101225.06;1729721;81;21747;-59
2021/03/27 10:33:17;;;;;;;23.60;12.88;;;;;;;14.16;34.46;101217.50;1734461;80;21216;-59
2021/03/27 10:35:57;;;;;;;;;;;;;;;14.18;34.42;101216.39;1737651;80;21230;-59
2021/03/27 10:38:58;;;;;;;19.45;12.40;;;;;;;14.25;34.80;101215.41;1718107;82;20225;-60
2021/03/27 10:41:57;;;;;;;21.65;14.13;;;;;;;14.37;34.86;101216.19;1712129;81;21393;-60
2021/03/27 10:44:31;;;;;;;18.00;12.82;;;;;;;14.49;34.15;101213.84;1738809;80;21469;-59
2021/03/27 10:47:26;;;;;;;20.75;13.98;;;;;;;14.48;34.36;101207.72;1756450;79;22977;-58
2021/03/27 10:49:59;;;;;;;21.05;13.70;;;;;;;14.43;34.39;101210.40;1731610;81;21196;-59
2021/03/27 10:52:52;;;;;;;21.80;13.98;;;;;;;14.38;34.65;101208.12;1710978;82;21655;-59
2021/03/27 10:56:01;;;;;;;22.40;13.78;;;;;;;14.43;34.20;101205.94;1699608;82;21259;-60
2021/03/27 10:58:40;;;;;;;23.12;13.95;;;;;;;14.46;34.34;101203.53;1698313;82;21172;-59
2021/03/27 11:01:55;;;;;;;21.15;13.20;;;;;;;14.45;34.95;101200.52;1704678;82;21673;-60
2021/03/27 11:04:39;;;;;;;20.95;13.40;;;;;;;14.47;34.86;101198.57;1732950;82;21050;-61
2021/03/27 11:07:43;;;;;;;19.17;13.68;;;;;;;14.55;34.37;101198.77;1726615;82;21395;-58
2021/03/27 11:10:48;;;;;;;21.30;13.28;;;;;;;14.61;34.51;101206.73;1704561;82;21200;-59
2021/03/27 11:14:00;;;;;;;20.48;12.60;;;;;;;14.67;34.61;101202.23;1729663;82;21196;-59
2021/03/27 11:16:49;;;;;;;20.68;13.22;;;;;;;14.82;34.34;101200.09;1727975;82;21196;-58
2021/03/27 11:19:51;;;;;;;22.32;13.20;;;;;;;14.93;33.38;101200.03;1723160;81;21216;-58
2021/03/27 11:22:36;;;;;;;25.60;14.20;;;;;;;14.94;33.56;101195.06;1730409;82;21355;-59
2021/03/27 11:25:26;;;;;;;19.12;13.28;;;;;;;14.95;33.25;101191.45;1703289;82;21250;-58
2021/03/27 11:28:17;;;;;;;20.80;12.60;;;;;;;14.93;32.93;101189.89;1726472;80;21419;-58
2021/03/27 11:31:00;;;;;;;18.95;12.03;;;;;;;14.93;32.82;101190.75;1694765;81;21140;-65
2021/03/27 11:33:38;;;;;;;18.07;13.18;;;;;;;14.96;32.44;101190.49;1730484;81;21199;-76
2021/03/27 11:36:26;;;;;;;16.50;11.18;;;;;;;15.00;32.36;101185.77;1678988;81;22708;-59
2021/03/27 11:39:28;;;;;;;21.05;11.75;;;;;;;15.00;32.04;101185.27;1677983;82;21191;-60
2021/03/27 11:42:13;;;;;;;18.67;11.85;;;;;;;15.05;32.43;101183.55;1674743;83;21255;-60
2021/03/27 11:45:09;;;;;;;21.00;13.10;;;;;;;15.27;32.01;101174.57;1829848;76;22910;-58
2021/03/27 11:48:17;;;;;;;18.85;12.30;;;;;;;15.29;32.07;101177.92;1798781;78;21641;-59
2021/03/27 11:50:51;;;;;;;20.55;13.60;;;;;;;15.32;32.30;101178.98;1762101;78;21231;-58
2021/03/27 11:53:44;;;;;;;22.87;13.58;;;;;;;15.38;31.82;101178.92;1751787;79;21626;-58
2021/03/27 11:56:31;;;;;;;16.77;11.03;;;;;;;15.46;31.84;101179.59;1799580;77;21152;-59
2021/03/27 12:02:55;;;;;;;22.37;12.63;;;;;;;15.56;31.83;101168.02;1803572;78;21967;-59
2021/03/27 12:05:46;;;;;;;18.92;12.53;;;;;;;15.62;31.13;101173.28;1774249;77;21167;-58
2021/03/27 12:08:24;;;;;;;20.40;12.30;;;;;;;15.63;31.00;101176.77;1791087;79;21250;-58
2021/03/27 12:11:47;;;;;;;18.10;12.18;;;;;;;15.67;30.88;101175.50;1802446;77;21469;-58
2021/03/27 12:14:42;;;;;;;16.60;10.58;;;;;;;15.73;30.61;101173.64;1805253;78;21211;-58
2021/03/27 12:17:53;;;;;;;16.20;10.88;;;;;;;15.73;29.97;101178.45;1730917;80;21654;-58
2021/03/27 12:20:35;;;;;;;16.87;10.63;;;;;;;15.73;29.99;101176.30;1722266;82;22363;-58
2021/03/27 12:23:33;;;;;;;18.87;11.25;;;;;;;15.63;29.99;101176.27;1692754;81;21814;-58
2021/03/27 12:26:38;;;;;;;19.23;11.85;;;;;;;15.62;30.37;101175.94;1717320;80;21576;-58
2021/03/27 12:29:23;;;;;;;15.70;10.53;;;;;;;15.67;30.35;101172.84;1721426;81;21214;-58
2021/03/27 12:32:19;;;;;;;18.10;12.13;;;;;;;15.70;30.20;101172.58;1766918;79;21599;-60
2021/03/27 12:35:22;;;;;;;16.23;11.35;;;;;;;15.72;30.42;101168.00;1734798;81;21752;-60
2021/03/27 12:38:28;;;;;;;18.17;11.70;;;;;;;15.73;30.67;101170.98;1790653;77;23557;-58
2021/03/27 12:41:04;;;;;;;18.67;11.35;;;;;;;15.72;30.71;101173.30;1774836;78;21112;-59
2021/03/27 12:43:51;;;;;;;19.70;11.22;;;;;;;15.77;30.17;101166.63;1876013;74;22684;-59
2021/03/27 12:46:44;;;;;;;17.70;11.05;;;;;;;15.75;30.09;101169.92;1840780;75;21104;-59
2021/03/27 12:49:42;;;;;;;19.37;11.68;;;;;;;15.78;30.24;101169.65;1806929;77;21191;-59
2021/03/27 12:52:39;;;;;;;18.65;11.55;;;;;;;15.84;30.19;101167.42;1800702;77;21495;-61
2021/03/27 12:55:28;;;;;;;17.52;11.63;;;;;;;15.95;30.50;101161.95;1828193;77;21218;-60
2021/03/27 12:58:28;;;;;;;18.98;12.25;;;;;;;16.20;29.94;101165.05;1781032;77;21230;-59
2021/03/27 13:01:10;;;;;;;17.30;11.85;;;;;;;16.44;29.48;101169.44;1819464;77;21170;-60
2021/03/27 13:04:18;;;;;;;23.52;12.73;;;;;;;16.70;29.05;101163.50;1780802;76;22430;-59
2021/03/27 13:06:57;;;;;;;17.85;12.15;;;;;;;16.87;28.30;101159.28;1790341;77;21217;-58
2021/03/27 13:09:55;;;;;;;15.40;11.30;;;;;;;16.93;28.71;101163.17;1807559;78;21840;-59
2021/03/27 13:12:43;;;;;;;17.50;10.82;;;;;;;17.08;29.21;101164.41;1810504;77;21792;-58
2021/03/27 13:15:25;;;;;;;16.27;11.50;;;;;;;17.36;28.75;101155.09;1808582;78;21188;-57
2021/03/27 13:18:25;;;;;;;18.92;11.80;;;;;;;17.59;27.72;101152.86;1803869;78;21398;-57
2021/03/27 13:21:17;;;;;;;17.80;10.58;;;;;;;17.58;27.68;101152.50;1806982;78;21610;-57
2021/03/27 13:24:09;;;;;;;18.57;11.12;;;;;;;17.69;27.81;101150.14;1800812;77;21172;-58
2021/03/27 13:26:38;;;;;;;21.40;12.15;;;;;;;18.35;27.10;101145.75;1805547;77;21167;-59
2021/03/27 13:29:32;;;;;;;17.95;11.50;;;;;;;19.42;26.25;101149.02;1804806;77;21128;-58
2021/03/27 13:32:10;;;;;;;15.15;10.93;;;;;;;20.63;25.17;101144.11;1807529;77;21384;-57
2021/03/27 13:34:45;;;;;;;19.07;12.85;;;;;;;22.01;23.85;101139.63;1788135;78;21203;-58
2021/03/27 13:37:27;;;;;;;17.00;10.98;;;;;;;23.06;22.21;101142.80;1783999;78;26141;-58
2021/03/27 13:40:23;;;;;;;17.48;12.10;;;;;;;23.85;21.66;101129.15;1803893;78;21200;-60
2021/03/27 13:43:16;;;;;;;19.65;11.33;;;;;;;24.59;20.60;101127.38;1781140;79;21188;-58
2021/03/27 13:46:09;;;;;;;14.20;10.55;;;;;;;25.27;19.83;101126.72;1786057;77;21184;-57